createdAt,value
2022-09-17T00:01:17.908Z,12.10
2022-09-17T00:04:00.232Z,12.10
2022-09-17T00:06:42.420Z,12.13
2022-09-17T00:09:36.097Z,12.10
2022-09-17T00:12:16.641Z,12.12
2022-09-17T00:15:08.416Z,12.09
2022-09-17T00:17:47.661Z,12.08
2022-09-17T00:20:27.607Z,12.09
2022-09-17T00:23:08.425Z,12.05
2022-09-17T00:25:48.675Z,12.07
2022-09-17T00:28:30.513Z,12.04
2022-09-17T00:31:10.174Z,12.00
2022-09-17T00:33:49.924Z,12.03
2022-09-17T00:36:29.619Z,11.99
2022-09-17T00:39:13.058Z,12.04
2022-09-17T00:41:52.268Z,12.02
2022-09-17T00:44:49.469Z,12.02
2022-09-17T00:47:33.276Z,12.01
2022-09-17T00:50:38.289Z,11.99
2022-09-17T00:53:19.647Z,11.95
2022-09-17T00:56:03.331Z,11.96
2022-09-17T00:58:56.332Z,11.95
2022-09-17T01:01:38.669Z,11.91
2022-09-17T01:04:19.209Z,11.90
2022-09-17T01:07:05.306Z,11.88
2022-09-17T01:09:51.430Z,11.87
2022-09-17T01:12:45.643Z,11.85
2022-09-17T01:15:29.947Z,11.87
2022-09-17T01:18:19.036Z,11.84
2022-09-17T01:21:40.022Z,11.84
2022-09-17T01:24:50.774Z,11.83
2022-09-17T01:28:18.669Z,11.79
2022-09-17T01:31:24.676Z,11.76
2022-09-17T01:34:14.324Z,11.75
2022-09-17T01:37:05.427Z,11.76
2022-09-17T01:39:50.534Z,11.75
2022-09-17T01:42:36.770Z,11.71
2022-09-17T01:45:20.629Z,11.71
2022-09-17T01:48:05.065Z,11.71
2022-09-17T01:50:50.543Z,11.71
2022-09-17T01:53:35.534Z,11.73
2022-09-17T01:56:21.381Z,11.73
2022-09-17T01:59:07.400Z,11.76
2022-09-17T02:01:49.218Z,11.67
2022-09-17T02:04:31.809Z,11.64
2022-09-17T02:07:14.469Z,11.68
2022-09-17T02:10:00.314Z,11.70
2022-09-17T02:12:42.565Z,11.72
2022-09-17T02:15:27.108Z,11.73
2022-09-17T02:18:11.801Z,11.73
2022-09-17T02:21:00.184Z,11.72
2022-09-17T02:23:44.671Z,11.69
2022-09-17T02:26:26.323Z,11.70
2022-09-17T02:29:10.312Z,11.70
2022-09-17T02:31:51.112Z,11.72
2022-09-17T02:34:32.018Z,11.71
2022-09-17T02:37:12.180Z,11.69
2022-09-17T02:39:51.505Z,11.68
2022-09-17T02:42:36.688Z,11.58
2022-09-17T02:45:20.969Z,11.66
2022-09-17T02:48:22.001Z,11.57
2022-09-17T02:51:14.935Z,11.57
2022-09-17T02:53:59.875Z,11.52
2022-09-17T02:56:46.159Z,11.49
2022-09-17T02:59:32.486Z,11.49
2022-09-17T03:02:17.694Z,11.45
2022-09-17T03:04:57.404Z,11.42
2022-09-17T03:07:47.495Z,11.41
2022-09-17T03:10:33.268Z,11.36
2022-09-17T03:13:12.847Z,11.37
2022-09-17T03:15:51.553Z,11.28
2022-09-17T03:18:30.905Z,11.28
2022-09-17T03:21:12.725Z,11.26
2022-09-17T03:23:54.104Z,11.21
2022-09-17T03:26:35.554Z,11.16
2022-09-17T03:29:14.868Z,11.18
2022-09-17T03:31:54.738Z,11.14
2022-09-17T03:34:36.578Z,11.09
2022-09-17T03:37:18.013Z,11.09
2022-09-17T03:39:57.341Z,11.06
2022-09-17T03:42:39.201Z,11.04
2022-09-17T03:45:17.335Z,11.00
2022-09-17T03:47:56.943Z,10.98
2022-09-17T03:50:38.653Z,10.96
2022-09-17T03:53:29.823Z,10.89
2022-09-17T03:56:11.537Z,10.90
2022-09-17T03:58:53.040Z,10.89
2022-09-17T04:01:34.464Z,10.84
2022-09-17T04:04:15.996Z,10.77
2022-09-17T04:06:57.184Z,10.81
2022-09-17T04:09:36.739Z,10.77
2022-09-17T04:12:15.160Z,10.75
2022-09-17T04:14:54.633Z,10.73
2022-09-17T04:17:34.406Z,10.70
2022-09-17T04:20:26.321Z,10.76
2022-09-17T04:23:07.012Z,10.77
2022-09-17T04:25:49.216Z,10.79
2022-09-17T04:28:28.653Z,10.77
2022-09-17T04:31:08.782Z,10.81
2022-09-17T04:33:50.226Z,10.81
2022-09-17T04:36:29.661Z,10.80
2022-09-17T04:39:09.677Z,10.81
2022-09-17T04:41:49.300Z,10.85
2022-09-17T04:44:29.092Z,10.89
2022-09-17T04:47:08.869Z,10.88
2022-09-17T04:49:48.676Z,10.95
2022-09-17T04:52:30.975Z,10.96
2022-09-17T04:55:14.319Z,10.96
2022-09-17T04:57:54.693Z,10.95
2022-09-17T05:00:35.662Z,10.94
2022-09-17T05:03:15.727Z,10.94
2022-09-17T05:05:57.563Z,10.95
2022-09-17T05:08:36.938Z,10.95
2022-09-17T05:11:28.813Z,10.94
2022-09-17T05:14:08.518Z,10.92
2022-09-17T05:16:48.129Z,10.89
2022-09-17T05:19:30.297Z,10.94
2022-09-17T05:22:11.046Z,10.90
2022-09-17T05:24:50.836Z,10.95
2022-09-17T05:27:30.557Z,10.89
2022-09-17T05:30:12.210Z,10.93
2022-09-17T05:32:59.596Z,10.96
2022-09-17T05:35:40.236Z,10.97
2022-09-17T05:38:19.421Z,10.93
2022-09-17T05:41:00.266Z,10.96
2022-09-17T05:43:43.653Z,10.97
2022-09-17T05:46:35.451Z,10.99
2022-09-17T05:49:16.000Z,10.89
2022-09-17T05:51:56.575Z,10.92
2022-09-17T05:54:36.451Z,10.92
2022-09-17T05:57:16.863Z,10.89
2022-09-17T05:59:56.048Z,10.88
2022-09-17T06:02:36.688Z,10.87
2022-09-17T06:05:19.289Z,10.85
2022-09-17T06:07:58.960Z,10.77
2022-09-17T06:10:41.393Z,10.76
2022-09-17T06:13:22.257Z,10.74
2022-09-17T06:16:07.131Z,10.73
2022-09-17T06:18:50.172Z,10.64
2022-09-17T06:21:32.480Z,10.57
2022-09-17T06:24:14.139Z,10.56
2022-09-17T06:26:53.762Z,10.62
2022-09-17T06:29:33.152Z,10.61
2022-09-17T06:32:15.496Z,10.58
2022-09-17T06:34:57.269Z,10.58
2022-09-17T06:37:40.168Z,10.66
2022-09-17T06:40:23.222Z,10.69
2022-09-17T06:43:05.791Z,10.75
2022-09-17T06:45:52.676Z,10.76
2022-09-17T06:48:35.031Z,10.82
2022-09-17T06:51:27.427Z,10.83
2022-09-17T06:54:07.199Z,10.89
2022-09-17T06:56:48.948Z,10.94
2022-09-17T06:59:28.480Z,11.04
2022-09-17T07:02:57.692Z,11.13
2022-09-17T07:05:40.151Z,11.16
2022-09-17T07:08:19.527Z,11.14
2022-09-17T07:11:02.933Z,11.26
2022-09-17T07:13:42.425Z,11.26
2022-09-17T07:16:22.235Z,11.34
2022-09-17T07:19:02.045Z,11.42
2022-09-17T07:21:42.052Z,11.46
2022-09-17T07:24:21.628Z,11.52
2022-09-17T07:27:01.618Z,11.57
2022-09-17T07:29:41.369Z,11.60
2022-09-17T07:32:21.127Z,11.66
2022-09-17T07:34:59.631Z,11.65
2022-09-17T07:37:41.064Z,11.67
2022-09-17T07:40:20.446Z,11.71
2022-09-17T07:43:00.311Z,11.75
2022-09-17T07:45:42.126Z,11.80
2022-09-17T07:48:22.437Z,11.84
2022-09-17T07:51:02.949Z,11.87
2022-09-17T07:53:43.139Z,11.90
2022-09-17T07:56:25.544Z,11.99
2022-09-17T07:59:05.752Z,12.07
2022-09-17T08:01:47.434Z,12.15
2022-09-17T08:04:26.876Z,12.19
2022-09-17T08:07:05.629Z,12.30
2022-09-17T08:09:44.810Z,12.32
2022-09-17T08:12:24.663Z,12.39
2022-09-17T08:15:04.772Z,12.46
2022-09-17T08:17:45.568Z,12.61
2022-09-17T08:20:26.184Z,12.73
2022-09-17T08:23:07.849Z,12.79
2022-09-17T08:25:54.704Z,12.91
2022-09-17T08:28:35.423Z,13.09
2022-09-17T08:31:17.605Z,13.26
2022-09-17T08:34:00.157Z,13.40
2022-09-17T08:36:40.730Z,13.43
2022-09-17T08:39:22.529Z,13.59
2022-09-17T08:42:08.024Z,13.86
2022-09-17T08:44:51.858Z,14.11
2022-09-17T08:47:36.644Z,14.35
2022-09-17T08:50:19.237Z,14.43
2022-09-17T08:53:10.471Z,14.70
2022-09-17T08:55:57.235Z,14.97
2022-09-17T08:59:06.487Z,15.25
2022-09-17T09:01:55.161Z,15.54
2022-09-17T09:04:45.597Z,15.91
2022-09-17T09:07:28.799Z,16.06
2022-09-17T09:10:15.222Z,16.30
2022-09-17T09:12:57.677Z,16.53
2022-09-17T09:15:42.399Z,16.80
2022-09-17T09:18:24.726Z,16.93
2022-09-17T09:21:13.626Z,17.35
2022-09-17T09:23:58.458Z,17.60
2022-09-17T09:26:45.537Z,17.81
2022-09-17T09:29:35.774Z,18.10
2022-09-17T09:32:22.460Z,18.15
2022-09-17T09:35:23.582Z,17.96
2022-09-17T09:38:06.879Z,18.23
2022-09-17T09:41:09.835Z,18.26
2022-09-17T09:44:13.364Z,18.30
2022-09-17T09:47:13.284Z,18.49
2022-09-17T09:50:02.937Z,18.56
2022-09-17T09:52:52.833Z,18.62
2022-09-17T09:55:48.573Z,18.87
2022-09-17T09:58:33.040Z,18.88
2022-09-17T10:01:29.196Z,19.09
2022-09-17T10:04:18.452Z,19.21
2022-09-17T10:07:04.343Z,19.00
2022-09-17T10:09:46.834Z,18.88
2022-09-17T10:12:28.794Z,18.80
2022-09-17T10:15:25.524Z,18.98
2022-09-17T10:18:51.084Z,18.81
2022-09-17T10:21:34.404Z,18.80
2022-09-17T10:24:24.109Z,18.78
2022-09-17T10:27:08.074Z,18.93
2022-09-17T10:29:51.964Z,19.08
2022-09-17T10:32:32.477Z,19.08
2022-09-17T10:38:04.093Z,18.60
2022-09-17T10:40:43.747Z,18.63
2022-09-17T10:43:24.819Z,18.69
2022-09-17T10:46:09.527Z,18.62
2022-09-17T10:48:55.555Z,18.61
2022-09-17T10:51:38.052Z,18.46
2022-09-17T10:55:06.184Z,18.48
2022-09-17T10:57:56.861Z,18.41
2022-09-17T11:00:47.847Z,18.25
2022-09-17T11:04:11.724Z,18.11
2022-09-17T11:07:11.150Z,18.05
2022-09-17T11:09:55.727Z,18.00
2022-09-17T11:12:44.181Z,17.78
2022-09-17T11:15:44.221Z,17.60
2022-09-17T11:18:41.072Z,17.25
2022-09-17T11:21:38.701Z,17.22
2022-09-17T11:24:48.935Z,17.09
2022-09-17T11:27:52.857Z,16.96
2022-09-17T11:30:34.960Z,16.88
2022-09-17T11:33:37.314Z,16.85
2022-09-17T11:36:20.829Z,16.73
2022-09-17T11:39:08.728Z,16.54
2022-09-17T11:41:50.746Z,16.57
2022-09-17T11:44:34.306Z,16.55
2022-09-17T11:47:17.048Z,16.32
2022-09-17T11:50:01.821Z,16.43
2022-09-17T11:52:46.400Z,16.49
2022-09-17T11:55:32.674Z,16.54
2022-09-17T11:58:29.429Z,16.61
2022-09-17T12:01:12.749Z,16.63
2022-09-17T12:03:54.641Z,16.73
2022-09-17T12:06:41.299Z,16.69
2022-09-17T12:09:23.185Z,16.56
2022-09-17T12:12:07.597Z,16.50
2022-09-17T12:14:50.261Z,16.42
2022-09-17T12:17:37.718Z,16.30
2022-09-17T12:20:24.768Z,16.24
2022-09-17T12:23:41.326Z,16.14
2022-09-17T12:26:29.568Z,16.08
2022-09-17T12:29:17.865Z,16.06
2022-09-17T12:32:04.021Z,15.85
2022-09-17T12:34:51.935Z,15.33
2022-09-17T12:37:39.014Z,14.95
2022-09-17T12:40:29.511Z,14.61
2022-09-17T12:43:28.725Z,14.30
2022-09-17T12:46:18.993Z,14.15
2022-09-17T12:49:22.004Z,13.79
2022-09-17T12:52:04.854Z,13.71
2022-09-17T12:55:00.727Z,13.63
2022-09-17T12:57:45.311Z,13.59
2022-09-17T13:00:25.982Z,13.56
2022-09-17T13:03:16.397Z,13.53
2022-09-17T13:06:18.904Z,13.56
2022-09-17T13:09:28.169Z,13.60
2022-09-17T13:12:15.049Z,13.68
2022-09-17T13:15:25.122Z,13.73
2022-09-17T13:18:26.286Z,13.77
2022-09-17T13:21:14.197Z,13.82
2022-09-17T13:23:56.236Z,13.81
2022-09-17T13:26:39.610Z,13.85
2022-09-17T13:29:51.942Z,13.77
2022-09-17T13:32:52.226Z,13.47
2022-09-17T13:35:52.003Z,13.24
2022-09-17T13:38:41.821Z,13.05
2022-09-17T13:41:25.586Z,12.91
2022-09-17T13:44:08.414Z,12.79
2022-09-17T13:46:48.489Z,12.70
2022-09-17T13:49:28.316Z,12.61
2022-09-17T13:52:11.697Z,12.46
2022-09-17T13:54:52.932Z,12.44
2022-09-17T13:57:47.132Z,12.39
2022-09-17T14:00:51.125Z,12.32
2022-09-17T14:03:53.628Z,12.27
2022-09-17T14:06:54.041Z,12.17
2022-09-17T14:09:51.989Z,12.15
2022-09-17T14:13:11.307Z,12.15
2022-09-17T14:16:02.609Z,12.18
2022-09-17T14:18:49.483Z,12.14
2022-09-17T14:21:35.784Z,12.22
2022-09-17T14:24:22.184Z,12.30
2022-09-17T14:27:45.729Z,12.39
2022-09-17T14:30:27.852Z,12.45
2022-09-17T14:33:12.793Z,12.38
2022-09-17T14:35:58.340Z,12.45
2022-09-17T14:38:52.881Z,12.43
2022-09-17T14:41:36.890Z,12.50
2022-09-17T14:44:37.669Z,12.53
2022-09-17T14:47:20.026Z,12.59
2022-09-17T14:50:22.453Z,12.57
2022-09-17T14:53:09.024Z,12.67
2022-09-17T14:55:51.351Z,12.63
2022-09-17T14:58:36.021Z,12.63
2022-09-17T15:01:23.563Z,12.55
2022-09-17T15:04:24.122Z,12.61
2022-09-17T15:07:13.819Z,12.58
2022-09-17T15:09:55.562Z,12.58
2022-09-17T15:12:38.637Z,12.60
2022-09-17T15:15:21.598Z,12.61
2022-09-17T15:18:03.529Z,12.58
2022-09-17T15:20:43.332Z,12.52
2022-09-17T15:23:28.056Z,12.51
2022-09-17T15:26:09.739Z,12.53
2022-09-17T15:29:05.445Z,12.44
2022-09-17T15:31:44.849Z,12.38
2022-09-17T15:34:24.927Z,12.38
2022-09-17T15:37:08.794Z,12.37
2022-09-17T15:39:55.676Z,12.31
2022-09-17T15:42:35.530Z,12.28
2022-09-17T15:45:39.236Z,12.28
2022-09-17T15:48:34.217Z,12.26
2022-09-17T15:51:26.191Z,12.25
2022-09-17T15:54:31.124Z,12.21
2022-09-17T15:57:15.785Z,12.20
2022-09-17T15:59:55.743Z,12.20
2022-09-17T16:02:36.268Z,12.23
2022-09-17T16:05:56.327Z,12.24
2022-09-17T16:08:38.728Z,12.22
2022-09-17T16:11:40.351Z,12.21
2022-09-17T16:14:20.092Z,12.21
2022-09-17T16:17:01.123Z,12.21
2022-09-17T16:20:15.318Z,12.22
2022-09-17T16:22:57.265Z,12.18
2022-09-17T16:25:39.061Z,12.21
2022-09-17T16:28:20.633Z,12.18
2022-09-17T16:31:01.426Z,12.19
2022-09-17T16:33:42.768Z,12.10
2022-09-17T16:36:36.180Z,12.13
2022-09-17T16:39:16.991Z,12.07
2022-09-17T16:41:57.225Z,11.99
2022-09-17T16:44:37.455Z,12.02
2022-09-17T16:47:16.162Z,12.02
2022-09-17T16:49:55.839Z,11.96
2022-09-17T16:52:36.254Z,11.88
2022-09-17T16:55:18.733Z,11.81
2022-09-17T16:57:59.811Z,11.83
2022-09-17T17:00:43.466Z,11.80
2022-09-17T17:03:23.643Z,11.69
2022-09-17T17:06:04.243Z,11.69
2022-09-17T17:08:46.115Z,11.68
2022-09-17T17:11:29.332Z,11.67
2022-09-17T17:14:14.795Z,11.68
2022-09-17T17:16:55.843Z,11.66
2022-09-17T17:19:36.809Z,11.68
2022-09-17T17:22:17.290Z,11.62
2022-09-17T17:24:57.676Z,11.64
2022-09-17T17:27:39.681Z,11.62
2022-09-17T17:30:40.965Z,11.63
2022-09-17T17:33:22.728Z,11.58
2022-09-17T17:36:08.188Z,11.58
2022-09-17T17:38:48.588Z,11.58
2022-09-17T17:41:29.636Z,11.55
2022-09-17T17:44:12.528Z,11.48
2022-09-17T17:47:12.377Z,11.45
2022-09-17T17:49:51.787Z,11.40
2022-09-17T17:52:32.899Z,11.40
2022-09-17T17:55:12.553Z,11.37
2022-09-17T17:58:00.399Z,11.30
2022-09-17T18:00:41.952Z,11.31
2022-09-17T18:03:25.070Z,11.19
2022-09-17T18:06:06.945Z,11.27
2022-09-17T18:08:47.524Z,11.23
2022-09-17T18:11:26.585Z,11.22
2022-09-17T18:14:07.272Z,11.18
2022-09-17T18:16:46.252Z,11.18
2022-09-17T18:19:26.656Z,11.17
2022-09-17T18:22:05.632Z,11.21
2022-09-17T18:24:46.894Z,11.20
2022-09-17T18:27:29.780Z,11.24
2022-09-17T18:30:11.192Z,11.25
2022-09-17T18:32:53.037Z,11.24
2022-09-17T18:35:38.757Z,11.27
2022-09-17T18:38:19.458Z,11.31
2022-09-17T18:41:05.607Z,11.30
2022-09-17T18:43:45.941Z,11.28
2022-09-17T18:46:26.030Z,11.30
2022-09-17T18:49:06.187Z,11.33
2022-09-17T18:51:48.850Z,11.33
2022-09-17T18:54:28.306Z,11.32
2022-09-17T18:57:10.135Z,11.34
2022-09-17T18:59:51.121Z,11.36
2022-09-17T19:02:30.947Z,11.34
2022-09-17T19:05:09.860Z,11.31
2022-09-17T19:07:52.183Z,11.32
2022-09-17T19:10:33.668Z,11.34
2022-09-17T19:13:13.378Z,11.35
2022-09-17T19:15:53.411Z,11.32
2022-09-17T19:18:34.065Z,11.34
2022-09-17T19:21:15.883Z,11.30
2022-09-17T19:23:55.844Z,11.33
2022-09-17T19:26:51.070Z,11.34
2022-09-17T19:29:34.132Z,11.34
2022-09-17T19:32:28.720Z,11.28
2022-09-17T19:35:09.521Z,11.31
2022-09-17T19:37:50.648Z,11.30
2022-09-17T19:40:31.068Z,11.26
2022-09-17T19:43:15.004Z,11.24
2022-09-17T19:46:02.458Z,11.18
2022-09-17T19:48:46.570Z,11.07
2022-09-17T19:51:29.833Z,11.15
2022-09-17T19:54:10.212Z,11.12
2022-09-17T19:56:52.642Z,11.14
2022-09-17T19:59:35.623Z,11.10
2022-09-17T20:02:18.923Z,11.09
2022-09-17T20:04:59.635Z,11.08
2022-09-17T20:07:39.392Z,11.01
2022-09-17T20:10:19.301Z,11.00
2022-09-17T20:13:22.382Z,10.96
2022-09-17T20:16:05.681Z,10.88
2022-09-17T20:18:44.806Z,10.89
2022-09-17T20:21:28.769Z,10.87
2022-09-17T20:24:21.074Z,10.77
2022-09-17T20:27:06.113Z,10.79
2022-09-17T20:29:46.460Z,10.79
2022-09-17T20:32:26.344Z,10.80
2022-09-17T20:35:06.680Z,10.81
2022-09-17T20:40:50.332Z,10.75
2022-09-17T20:43:35.597Z,10.75
2022-09-17T20:46:29.229Z,10.69
2022-09-17T20:49:12.201Z,10.69
2022-09-17T20:51:53.146Z,10.58
2022-09-17T20:54:31.747Z,10.63
2022-09-17T20:57:11.188Z,10.59
2022-09-17T20:59:53.404Z,10.59
2022-09-17T21:02:34.157Z,10.54
2022-09-17T21:05:14.510Z,10.50
2022-09-17T21:07:54.952Z,10.49
2022-09-17T21:10:34.760Z,10.48
2022-09-17T21:13:14.597Z,10.47
2022-09-17T21:15:58.501Z,10.46
2022-09-17T21:18:41.680Z,10.38
2022-09-17T21:21:22.041Z,10.38
2022-09-17T21:24:02.205Z,10.34
2022-09-17T21:26:41.577Z,10.36
2022-09-17T21:29:21.580Z,10.37
2022-09-17T21:32:01.341Z,10.41
2022-09-17T21:34:39.851Z,10.39
2022-09-17T21:37:19.185Z,10.42
2022-09-17T21:39:59.102Z,10.40
2022-09-17T21:42:40.846Z,10.41
2022-09-17T21:45:22.253Z,10.42
2022-09-17T21:48:03.719Z,10.37
2022-09-17T21:51:04.808Z,10.40
2022-09-17T21:53:44.642Z,10.39
2022-09-17T21:56:24.807Z,10.35
2022-09-17T21:59:07.445Z,10.42
2022-09-17T22:01:48.458Z,10.34
2022-09-17T22:04:28.289Z,10.36
2022-09-17T22:07:08.098Z,10.31
2022-09-17T22:09:49.959Z,10.29
2022-09-17T22:12:31.375Z,10.27
2022-09-17T22:15:11.251Z,10.14
2022-09-17T22:17:50.469Z,10.18
2022-09-17T22:20:31.678Z,10.14
2022-09-17T22:23:11.724Z,10.11
2022-09-17T22:26:01.215Z,10.08
2022-09-17T22:28:40.937Z,10.07
2022-09-17T22:31:21.258Z,10.02
2022-09-17T22:34:18.118Z,10.01
2022-09-17T22:37:00.810Z,9.98
2022-09-17T22:39:39.949Z,9.99
2022-09-17T22:42:19.724Z,9.98
2022-09-17T22:44:59.530Z,9.86
2022-09-17T22:47:41.029Z,9.84
2022-09-17T22:50:20.854Z,9.81
2022-09-17T22:53:00.572Z,9.76
2022-09-17T22:55:40.375Z,9.75
2022-09-17T22:58:21.627Z,9.73
2022-09-17T23:01:04.669Z,9.67
2022-09-17T23:03:45.766Z,9.61
2022-09-17T23:06:27.693Z,9.59
2022-09-17T23:09:07.784Z,9.60
2022-09-17T23:11:47.240Z,9.61
2022-09-17T23:14:39.612Z,9.53
2022-09-17T23:17:39.425Z,9.50
2022-09-17T23:20:19.235Z,9.53
2022-09-17T23:23:01.322Z,9.50
2022-09-17T23:25:40.476Z,9.49
2022-09-17T23:28:20.264Z,9.40
2022-09-17T23:31:00.089Z,9.42
2022-09-17T23:33:42.231Z,9.37
2022-09-17T23:36:24.526Z,9.42
2022-09-17T23:39:07.992Z,9.41
2022-09-17T23:41:49.273Z,9.40
2022-09-17T23:44:30.699Z,9.32
2022-09-17T23:47:12.166Z,9.36
2022-09-17T23:49:53.500Z,9.35
2022-09-17T23:52:32.945Z,9.38
2022-09-17T23:55:14.724Z,9.40
2022-09-17T23:57:54.125Z,9.40
